Yale, IL

10:12 AM CST on January 30, 2015 (GMT -0600)
APRSWXNET Casey IL US | Change Station
CLOSE
Current Station
Personal Weather Station
Location: Casey, IL
Elevation: 652 ft
Nearby Weather Stations
Active Advisory: Special Statement

Elev 652 ft 39.30 °N, 87.98 °W | Updated 51 minutes ago

Clear
Clear
28 °F
Feels Like 20 °F
N
8
Wind Variable Wind from North
Gusts 15.0 mph

Today
High -- | Low -- °F
--% Chance of Precip.
Yesterday
High -- | Low -- °F
Precip. -- in
7:00 AM 5:10 PM
Waxing Gibbous, 83% visible
Pressure 30.54 in
Visibility 10.0 miles
Clouds Mostly Cloudy 2500 ft
Mostly Cloudy 3000 ft
Windchill 20 °F
Dew Point 22 °F
Humidity 78%
Rainfall 0.00 in
Snow Depth Not available.
UV 1 out of 12
Pollen .10 out of 12
Air Quality Not available.
Flu Activity Not available.
METAR KRSV 301555Z AUTO 36008KT 10SM BKN025 BKN030 00/M04 A3054 RMK AO2 T00021045

More Conditions Fewer Conditions

Pressure 30.54 in
Visibility 10.0 miles
Clouds Mostly Cloudy 2500 ft
Mostly Cloudy 3000 ft
Windchill 20 °F
Dew Point 22 °F
Humidity 78%
Rainfall 0.00 in
Snow Depth Not available.
UV 1 out of 12
Pollen .10 out of 12
Air Quality Not available.
Flu Activity Not available.
METAR KRSV 301555Z AUTO 36008KT 10SM BKN025 BKN030 00/M04 A3054 RMK AO2 T00021045

More Conditions Fewer Conditions

10-Day Weather Forecast

Almanac

Astronomy

Jan. 30, 2015 Rise Set
Actual Time
Civil Twilight
Nautical Twilight
Astronomical Twilight
Moon
Length of Visible Light
Length of Day
Tomorrow will be .
, % of the Moon is Illuminated

Today's Extremes

State Highs State Lows

Community

WunderPhotos

Upload Photos

1,791,802 photos uploaded!

WunderBlogs® & News

Nearby

Air Quality

  Air Quality AQ Index Pollutant
Not available.

Snow Depth

Station Depth Elevation

Earthquake Activity

City Distance Mag. Time & Date
Minimum magnitude displayed is 2.5.

Coastal Water Temperatures

Place Temperature

Nearby Weather Stations